Time;durP1;ratioP1;P1;durP2;ratioP2;P2;SDS_P1;SDS_P2;PMS_P1;PMS_P2;Temp;Humidity;BMP_temperature;BMP_pressure;BME280_temperature;BME280_humidity;BME280_pressure;Samples;Min_cycle;Max_cycle;Signal;HPM_P1;HPM_P2
2022/06/07 00:01:08;;;;;;;1.65;1.00;;;;;;;;;;10452222;28;20218;-72
2022/06/07 00:06:09;;;;;;;2.10;1.10;;;;;;;;;;10452843;28;20241;-72
2022/06/07 00:11:10;;;;;;;2.22;1.00;;;;;;;;;;10460876;28;20218;-71
2022/06/07 00:16:12;;;;;;;1.00;1.00;;;;;;;;;;10449201;28;20202;-71
2022/06/07 00:21:13;;;;;;;0.80;0.80;;;;;;;;;;10455293;28;20638;-71
2022/06/07 00:26:14;;;;;;;2.95;1.00;;;;;;;;;;10462012;28;20256;-72
2022/06/07 00:31:15;;;;;;;2.85;0.73;;;;;;;;;;10444117;28;20218;-72
2022/06/07 00:36:16;;;;;;;0.90;0.90;;;;;;;;;;10450454;28;20199;-71
2022/06/07 00:41:17;;;;;;;3.40;0.88;;;;;;;;;;10448306;28;20285;-71
2022/06/07 00:46:18;;;;;;;0.80;0.80;;;;;;;;;;10436081;28;20210;-71
2022/06/07 00:51:20;;;;;;;1.38;0.82;;;;;;;;;;10442266;28;20298;-70
2022/06/07 00:56:21;;;;;;;1.20;0.80;;;;;;;;;;10425994;28;20209;-71
2022/06/07 01:01:22;;;;;;;2.80;0.75;;;;;;;;;;10437044;28;20218;-71
2022/06/07 01:11:44;;;;;;;0.85;0.70;;;;;;;;;;10369191;28;20210;-71
2022/06/07 01:16:46;;;;;;;2.10;0.80;;;;;;;;;;10368821;28;20195;-72
2022/06/07 01:21:48;;;;;;;0.70;0.70;;;;;;;;;;10367465;28;20207;-71
2022/06/07 01:26:50;;;;;;;1.30;0.80;;;;;;;;;;10354887;28;20211;-71
2022/06/07 01:31:52;;;;;;;2.25;0.93;;;;;;;;;;10366918;28;20340;-71
2022/06/07 01:36:58;;;;;;;1.02;1.00;;;;;;;;;;10359894;28;20306;-71
2022/06/07 01:42:01;;;;;;;1.00;0.82;;;;;;;;;;10368462;28;20273;-71
2022/06/07 01:47:05;;;;;;;1.02;0.70;;;;;;;;;;10364505;28;20286;-72
2022/06/07 01:52:09;;;;;;;1.92;0.88;;;;;;;;;;10367156;28;20175;-72
2022/06/07 01:57:15;;;;;;;1.27;0.90;;;;;;;;;;10364044;28;21425;-71
2022/06/07 02:02:16;;;;;;;1.75;0.65;;;;;;;;;;10362683;28;20226;-72
2022/06/07 02:07:19;;;;;;;1.35;0.80;;;;;;;;;;10397978;28;20214;-70
2022/06/07 02:12:24;;;;;;;0.75;0.70;;;;;;;;;;10407796;28;20648;-71
2022/06/07 02:17:25;;;;;;;2.15;0.80;;;;;;;;;;10382899;28;20210;-71
2022/06/07 02:22:40;;;;;;;0.70;0.70;;;;;;;;;;10390816;28;20229;-72
2022/06/07 02:27:41;;;;;;;1.85;1.17;;;;;;;;;;10390466;28;20186;-71
2022/06/07 02:32:42;;;;;;;1.80;1.20;;;;;;;;;;10411618;28;20329;-72
2022/06/07 02:37:44;;;;;;;0.82;0.82;;;;;;;;;;10412400;28;20190;-71
2022/06/07 02:42:45;;;;;;;1.55;0.80;;;;;;;;;;10416371;28;20211;-72
2022/06/07 02:47:46;;;;;;;0.98;0.80;;;;;;;;;;10391927;28;20299;-71
2022/06/07 02:52:52;;;;;;;1.23;0.80;;;;;;;;;;10391545;28;20652;-72
2022/06/07 02:57:59;;;;;;;1.58;0.93;;;;;;;;;;10383140;28;20180;-71
2022/06/07 03:03:01;;;;;;;1.20;1.17;;;;;;;;;;10372424;28;20216;-71
2022/06/07 03:08:03;;;;;;;1.25;1.15;;;;;;;;;;10395801;28;20218;-71
2022/06/07 03:13:04;;;;;;;2.05;1.10;;;;;;;;;;10437041;28;20202;-71
2022/06/07 03:18:06;;;;;;;3.80;1.08;;;;;;;;;;10453722;28;20673;-72
2022/06/07 03:23:12;;;;;;;2.00;1.00;;;;;;;;;;10445314;28;20210;-71
2022/06/07 03:28:15;;;;;;;1.13;1.13;;;;;;;;;;10432720;28;20180;-70
2022/06/07 03:33:17;;;;;;;2.65;1.10;;;;;;;;;;10447655;28;20736;-71
2022/06/07 03:38:19;;;;;;;1.45;1.20;;;;;;;;;;10420699;28;20621;-70
2022/06/07 03:43:23;;;;;;;1.42;1.23;;;;;;;;;;10424849;28;20210;-70
2022/06/07 03:48:24;;;;;;;1.30;1.10;;;;;;;;;;10438969;28;20234;-71
2022/06/07 03:53:27;;;;;;;1.30;1.20;;;;;;;;;;10448980;28;20201;-71
2022/06/07 03:58:29;;;;;;;1.20;1.20;;;;;;;;;;10425628;28;20176;-74
2022/06/07 04:03:31;;;;;;;8.43;1.60;;;;;;;;;;10428761;28;20272;-75
2022/06/07 04:08:33;;;;;;;1.40;1.33;;;;;;;;;;10423542;28;20210;-75
2022/06/07 04:13:34;;;;;;;1.20;1.20;;;;;;;;;;10409848;28;21006;-75
2022/06/07 04:18:40;;;;;;;2.58;1.50;;;;;;;;;;10438426;28;20235;-75
2022/06/07 04:23:42;;;;;;;1.55;1.55;;;;;;;;;;10456842;28;20237;-75
2022/06/07 04:28:43;;;;;;;5.43;1.52;;;;;;;;;;10436006;28;20178;-75
2022/06/07 04:33:46;;;;;;;1.42;1.42;;;;;;;;;;10417244;28;20229;-75
2022/06/07 04:38:52;;;;;;;2.88;1.88;;;;;;;;;;10438180;28;20249;-75
2022/06/07 04:43:57;;;;;;;2.13;1.95;;;;;;;;;;10428178;28;20218;-75
2022/06/07 04:48:59;;;;;;;2.63;2.40;;;;;;;;;;10415102;28;20674;-75
2022/06/07 04:54:03;;;;;;;2.47;2.00;;;;;;;;;;10437767;28;20198;-75
2022/06/07 04:59:10;;;;;;;2.45;2.30;;;;;;;;;;10426786;28;20183;-75
2022/06/07 05:04:14;;;;;;;2.65;2.53;;;;;;;;;;10425967;28;20211;-75
2022/06/07 05:09:20;;;;;;;2.17;2.15;;;;;;;;;;10436343;28;20222;-75
2022/06/07 05:14:24;;;;;;;2.05;2.05;;;;;;;;;;10458985;28;20198;-75
2022/06/07 05:19:26;;;;;;;2.03;1.90;;;;;;;;;;10433176;28;20183;-75
2022/06/07 05:24:36;;;;;;;2.13;2.03;;;;;;;;;;10449478;28;20218;-75
2022/06/07 05:29:41;;;;;;;1.67;1.58;;;;;;;;;;10436054;28;20197;-75
2022/06/07 05:34:42;;;;;;;2.20;1.40;;;;;;;;;;10432487;28;20237;-76
2022/06/07 05:39:44;;;;;;;3.80;1.40;;;;;;;;;;10430405;28;20194;-76
2022/06/07 05:44:47;;;;;;;2.92;1.30;;;;;;;;;;10442052;28;20325;-76
2022/06/07 05:49:48;;;;;;;2.85;1.20;;;;;;;;;;10429834;28;20175;-76
2022/06/07 05:54:55;;;;;;;1.77;1.67;;;;;;;;;;10422017;28;20205;-76
2022/06/07 05:59:57;;;;;;;1.13;1.13;;;;;;;;;;10421445;28;20255;-75
2022/06/07 06:04:58;;;;;;;1.60;1.15;;;;;;;;;;10419639;28;20226;-75
2022/06/07 06:15:25;;;;;;;0.82;0.82;;;;;;;;;;10409176;28;20726;-75
2022/06/07 06:20:27;;;;;;;3.40;1.10;;;;;;;;;;10437766;28;20224;-76
2022/06/07 06:25:32;;;;;;;2.10;1.05;;;;;;;;;;10404862;28;20214;-75
2022/06/07 06:30:33;;;;;;;3.90;0.90;;;;;;;;;;10421178;28;20268;-75
2022/06/07 06:35:47;;;;;;;5.15;0.90;;;;;;;;;;10441568;28;20193;-76
2022/06/07 06:40:50;;;;;;;0.82;0.68;;;;;;;;;;10444164;28;21060;-75
2022/06/07 06:45:52;;;;;;;2.03;1.08;;;;;;;;;;10432128;28;20190;-76
2022/06/07 06:51:02;;;;;;;0.80;0.70;;;;;;;;;;10437807;28;20277;-76
2022/06/07 06:56:04;;;;;;;1.63;0.60;;;;;;;;;;10429309;28;20675;-75
2022/06/07 07:01:12;;;;;;;2.67;0.70;;;;;;;;;;10429746;28;20298;-76
2022/06/07 07:06:14;;;;;;;3.50;0.75;;;;;;;;;;10424561;28;20590;-76
2022/06/07 07:11:15;;;;;;;2.50;0.70;;;;;;;;;;10449635;28;20835;-75
2022/06/07 07:16:20;;;;;;;0.73;0.60;;;;;;;;;;10421612;28;20702;-75
2022/06/07 07:21:26;;;;;;;1.90;0.50;;;;;;;;;;10433594;28;20218;-74
2022/06/07 07:26:29;;;;;;;1.38;0.50;;;;;;;;;;10434206;28;20201;-73
2022/06/07 07:31:36;;;;;;;2.42;0.55;;;;;;;;;;10429314;28;20249;-76
2022/06/07 07:36:43;;;;;;;1.95;0.40;;;;;;;;;;10430441;28;20209;-74
2022/06/07 07:41:48;;;;;;;1.38;0.30;;;;;;;;;;10430788;28;21149;-75
2022/06/07 07:46:51;;;;;;;0.30;0.30;;;;;;;;;;10451756;28;20198;-75
2022/06/07 07:51:54;;;;;;;2.28;0.40;;;;;;;;;;10430129;28;20462;-74
2022/06/07 07:56:59;;;;;;;1.63;0.40;;;;;;;;;;10420575;28;20626;-75
2022/06/07 08:02:00;;;;;;;0.45;0.45;;;;;;;;;;10449221;28;20220;-74
2022/06/07 08:07:02;;;;;;;0.50;0.30;;;;;;;;;;10437013;28;20245;-76
2022/06/07 08:12:06;;;;;;;1.45;0.43;;;;;;;;;;10419482;28;20183;-75
2022/06/07 08:17:07;;;;;;;0.52;0.32;;;;;;;;;;10442626;28;21011;-74
2022/06/07 08:22:09;;;;;;;0.43;0.30;;;;;;;;;;10451140;28;20214;-74
2022/06/07 08:27:10;;;;;;;0.43;0.20;;;;;;;;;;10444475;28;20803;-75
2022/06/07 08:32:11;;;;;;;0.50;0.50;;;;;;;;;;10441771;28;20348;-76
2022/06/07 08:42:37;;;;;;;0.60;0.30;;;;;;;;;;10443321;28;20213;-75
2022/06/07 08:47:41;;;;;;;0.25;0.25;;;;;;;;;;10433508;28;20186;-76
2022/06/07 08:52:43;;;;;;;2.15;0.30;;;;;;;;;;10447250;28;20695;-75
2022/06/07 08:57:49;;;;;;;0.30;0.25;;;;;;;;;;10438187;28;20373;-75
2022/06/07 09:02:52;;;;;;;0.20;0.20;;;;;;;;;;10440337;28;20214;-75
2022/06/07 09:07:53;;;;;;;1.17;0.28;;;;;;;;;;10421139;28;20223;-75
2022/06/07 09:12:56;;;;;;;0.63;0.40;;;;;;;;;;10399181;28;20214;-75
2022/06/07 09:17:58;;;;;;;0.20;0.20;;;;;;;;;;10396416;28;20187;-75
2022/06/07 09:23:20;;;;;;;1.70;0.30;;;;;;;;;;10385719;28;20215;-75
2022/06/07 09:28:29;;;;;;;0.52;0.30;;;;;;;;;;10403783;28;20179;-74
2022/06/07 09:33:35;;;;;;;0.20;0.20;;;;;;;;;;10402217;28;20210;-76
2022/06/07 09:38:40;;;;;;;3.42;0.20;;;;;;;;;;10396785;28;20187;-75
2022/06/07 09:43:43;;;;;;;0.20;0.20;;;;;;;;;;10400573;28;20219;-76
2022/06/07 09:48:45;;;;;;;2.17;0.30;;;;;;;;;;10403486;28;20183;-76
2022/06/07 09:53:56;;;;;;;2.13;0.30;;;;;;;;;;10399498;28;20282;-75
2022/06/07 09:59:09;;;;;;;2.58;0.20;;;;;;;;;;10393776;28;20180;-75
2022/06/07 10:04:10;;;;;;;0.20;0.20;;;;;;;;;;10396249;28;20227;-76
2022/06/07 10:09:18;;;;;;;0.20;0.20;;;;;;;;;;10428453;28;20214;-75
2022/06/07 10:14:38;;;;;;;0.70;0.43;;;;;;;;;;10438251;28;20692;-75
2022/06/07 10:20:11;;;;;;;0.22;0.22;;;;;;;;;;10440895;28;21004;-76
2022/06/07 10:25:18;;;;;;;0.45;0.20;;;;;;;;;;10384918;28;20222;-75
2022/06/07 10:30:20;;;;;;;0.73;0.30;;;;;;;;;;10440707;28;20174;-75
2022/06/07 10:35:27;;;;;;;1.40;0.32;;;;;;;;;;10434284;28;20306;-74
2022/06/07 10:40:46;;;;;;;0.20;0.20;;;;;;;;;;10430632;28;20205;-74
2022/06/07 10:45:47;;;;;;;0.30;0.30;;;;;;;;;;10411801;28;20202;-75
2022/06/07 10:50:52;;;;;;;0.50;0.30;;;;;;;;;;10414686;28;20178;-76
2022/06/07 10:55:58;;;;;;;1.95;0.52;;;;;;;;;;10392751;28;20207;-76
2022/06/07 11:01:14;;;;;;;0.60;0.30;;;;;;;;;;10407857;28;20214;-76
2022/06/07 11:12:07;;;;;;;0.32;0.30;;;;;;;;;;10385965;28;21829;-75
2022/06/07 11:17:23;;;;;;;0.45;0.25;;;;;;;;;;10418754;28;20234;-75
2022/06/07 11:22:30;;;;;;;0.82;0.30;;;;;;;;;;10410016;28;20821;-76
2022/06/07 11:27:31;;;;;;;0.52;0.30;;;;;;;;;;10430539;28;20187;-76
2022/06/07 11:32:42;;;;;;;1.20;0.25;;;;;;;;;;10428116;28;20325;-74
2022/06/07 11:37:43;;;;;;;0.52;0.20;;;;;;;;;;10426554;28;20187;-75
2022/06/07 11:42:44;;;;;;;0.63;0.38;;;;;;;;;;10439631;28;20270;-76
2022/06/07 11:47:45;;;;;;;0.55;0.20;;;;;;;;;;10441989;28;20183;-76
2022/06/07 11:52:56;;;;;;;0.43;0.20;;;;;;;;;;10448243;28;20267;-76
2022/06/07 11:58:00;;;;;;;1.75;0.20;;;;;;;;;;10438177;28;20703;-76
2022/06/07 12:03:06;;;;;;;0.40;0.20;;;;;;;;;;10455925;28;20218;-75
2022/06/07 12:08:24;;;;;;;0.70;0.28;;;;;;;;;;10408086;28;20901;-76
2022/06/07 12:18:51;;;;;;;2.05;0.30;;;;;;;;;;10402870;28;20606;-77
2022/06/07 12:24:00;;;;;;;1.75;0.30;;;;;;;;;;10406645;28;20901;-77
2022/06/07 12:29:03;;;;;;;0.20;0.20;;;;;;;;;;10406848;28;20266;-77
2022/06/07 12:34:15;;;;;;;0.75;0.20;;;;;;;;;;10405366;28;20220;-76
2022/06/07 12:39:16;;;;;;;0.40;0.10;;;;;;;;;;10402128;28;20577;-75
2022/06/07 12:44:22;;;;;;;1.08;0.20;;;;;;;;;;10401125;28;20243;-76
2022/06/07 12:49:23;;;;;;;2.28;0.20;;;;;;;;;;10388694;28;21010;-76
2022/06/07 12:54:24;;;;;;;0.20;0.20;;;;;;;;;;10405483;28;20210;-76
2022/06/07 12:59:31;;;;;;;2.08;0.20;;;;;;;;;;10398231;28;20206;-77
2022/06/07 13:04:44;;;;;;;0.20;0.20;;;;;;;;;;10405212;28;20238;-75
2022/06/07 13:09:48;;;;;;;0.75;0.30;;;;;;;;;;10402748;28;20214;-75
2022/06/07 13:14:52;;;;;;;0.30;0.30;;;;;;;;;;10400123;28;20234;-77
2022/06/07 13:19:53;;;;;;;1.33;0.30;;;;;;;;;;10407402;28;20187;-78
2022/06/07 13:24:57;;;;;;;1.15;0.20;;;;;;;;;;10401684;28;21019;-76
2022/06/07 13:29:59;;;;;;;0.47;0.30;;;;;;;;;;10384478;28;20675;-77
2022/06/07 13:35:03;;;;;;;0.20;0.20;;;;;;;;;;10383886;28;20218;-75
2022/06/07 13:40:23;;;;;;;1.55;0.28;;;;;;;;;;10383057;28;20187;-76
2022/06/07 13:45:26;;;;;;;1.05;0.20;;;;;;;;;;10397122;28;20211;-76
2022/06/07 13:56:14;;;;;;;0.30;0.30;;;;;;;;;;10372480;28;20840;-76
2022/06/07 14:01:17;;;;;;;0.25;0.10;;;;;;;;;;10400788;28;20319;-76
2022/06/07 14:06:25;;;;;;;0.38;0.20;;;;;;;;;;10398295;28;21169;-77
2022/06/07 14:11:26;;;;;;;1.17;0.20;;;;;;;;;;10419945;28;20816;-75
2022/06/07 14:16:31;;;;;;;0.90;0.20;;;;;;;;;;10437981;28;21323;-75
2022/06/07 14:21:32;;;;;;;1.08;0.20;;;;;;;;;;10434910;28;20554;-78
2022/06/07 14:26:33;;;;;;;0.30;0.30;;;;;;;;;;10431130;28;20205;-75
2022/06/07 14:31:35;;;;;;;0.28;0.28;;;;;;;;;;10419847;28;21129;-76
2022/06/07 14:36:36;;;;;;;1.08;0.20;;;;;;;;;;10433597;28;20198;-76
2022/06/07 14:41:37;;;;;;;0.35;0.20;;;;;;;;;;10429957;28;20661;-76
2022/06/07 14:46:39;;;;;;;0.55;0.30;;;;;;;;;;10430656;28;20200;-76
2022/06/07 14:51:41;;;;;;;1.50;0.30;;;;;;;;;;10444679;28;20265;-76
2022/06/07 14:56:43;;;;;;;0.40;0.20;;;;;;;;;;10433547;28;20195;-75
2022/06/07 15:01:45;;;;;;;0.43;0.30;;;;;;;;;;10391242;28;20218;-76
2022/06/07 15:06:46;;;;;;;0.20;0.20;;;;;;;;;;10419980;28;20215;-76
2022/06/07 15:11:47;;;;;;;0.30;0.30;;;;;;;;;;10397171;28;20183;-75
2022/06/07 15:16:51;;;;;;;0.20;0.20;;;;;;;;;;10381561;28;20727;-75
2022/06/07 15:21:52;;;;;;;0.30;0.30;;;;;;;;;;10404609;28;20226;-75
2022/06/07 15:26:54;;;;;;;0.30;0.30;;;;;;;;;;10406977;28;20633;-75
2022/06/07 15:32:09;;;;;;;0.40;0.20;;;;;;;;;;10407016;28;20234;-76
2022/06/07 15:37:10;;;;;;;2.20;0.20;;;;;;;;;;10369793;28;20264;-76
2022/06/07 15:47:31;;;;;;;0.82;0.22;;;;;;;;;;10402615;28;20183;-76
2022/06/07 15:52:32;;;;;;;0.25;0.25;;;;;;;;;;10407836;28;20561;-74
2022/06/07 16:02:53;;;;;;;0.20;0.20;;;;;;;;;;10391943;28;20243;-76
2022/06/07 16:07:54;;;;;;;0.28;0.28;;;;;;;;;;10410185;28;20597;-76
2022/06/07 16:12:56;;;;;;;0.28;0.20;;;;;;;;;;10440522;28;20213;-76
2022/06/07 16:17:57;;;;;;;1.25;0.20;;;;;;;;;;10437356;28;20275;-76
2022/06/07 16:22:58;;;;;;;0.40;0.28;;;;;;;;;;10439564;28;23960;-75
2022/06/07 16:33:20;;;;;;;0.20;0.20;;;;;;;;;;10438407;28;20229;-75
2022/06/07 16:38:22;;;;;;;0.32;0.32;;;;;;;;;;10441163;28;20193;-75
2022/06/07 16:48:44;;;;;;;0.93;0.15;;;;;;;;;;10431218;28;20187;-75
2022/06/07 16:53:46;;;;;;;0.22;0.22;;;;;;;;;;10436694;28;20220;-76
2022/06/07 16:58:47;;;;;;;0.90;0.30;;;;;;;;;;10437963;28;20213;-76
2022/06/07 17:03:48;;;;;;;1.65;0.40;;;;;;;;;;10434416;28;20223;-75
2022/06/07 17:08:50;;;;;;;0.22;0.22;;;;;;;;;;10409689;28;20214;-76
2022/06/07 17:13:51;;;;;;;1.15;0.30;;;;;;;;;;10442696;28;20202;-75
2022/06/07 17:18:54;;;;;;;0.43;0.20;;;;;;;;;;10435315;28;20186;-75
2022/06/07 17:23:55;;;;;;;0.22;0.20;;;;;;;;;;10436416;28;20279;-77
2022/06/07 17:28:56;;;;;;;0.30;0.20;;;;;;;;;;10438696;28;20174;-75
2022/06/07 17:33:57;;;;;;;1.25;0.30;;;;;;;;;;10428409;28;20742;-75
2022/06/07 17:38:58;;;;;;;0.75;0.28;;;;;;;;;;10435025;28;20189;-75
2022/06/07 17:44:00;;;;;;;0.43;0.35;;;;;;;;;;10422245;28;20205;-76
2022/06/07 17:49:01;;;;;;;1.45;0.30;;;;;;;;;;10429339;28;20187;-76
2022/06/07 17:54:02;;;;;;;0.40;0.40;;;;;;;;;;10445344;28;20274;-76
2022/06/07 17:59:04;;;;;;;0.95;0.30;;;;;;;;;;10448572;28;20186;-75
2022/06/07 18:04:05;;;;;;;0.75;0.30;;;;;;;;;;10448938;28;20227;-77
2022/06/07 18:09:06;;;;;;;0.47;0.30;;;;;;;;;;10395646;28;20216;-75
2022/06/07 18:14:07;;;;;;;0.40;0.40;;;;;;;;;;10392267;28;20203;-75
2022/06/07 18:19:08;;;;;;;0.40;0.40;;;;;;;;;;10392217;28;20267;-75
2022/06/07 18:24:10;;;;;;;0.45;0.32;;;;;;;;;;10410200;28;20206;-76
2022/06/07 18:29:11;;;;;;;1.75;0.47;;;;;;;;;;10394765;28;20179;-76
2022/06/07 18:34:17;;;;;;;1.02;0.93;;;;;;;;;;10413540;28;20202;-75
2022/06/07 18:39:18;;;;;;;0.88;0.77;;;;;;;;;;10405396;28;20192;-75
2022/06/07 18:44:19;;;;;;;0.80;0.80;;;;;;;;;;10397632;28;20233;-75
2022/06/07 18:49:22;;;;;;;1.25;0.70;;;;;;;;;;10405082;28;20251;-75
2022/06/07 18:54:23;;;;;;;1.05;1.02;;;;;;;;;;10401452;28;20214;-76
2022/06/07 18:59:24;;;;;;;5.07;1.08;;;;;;;;;;10411911;28;20187;-75
2022/06/07 19:04:25;;;;;;;3.65;0.98;;;;;;;;;;10402812;28;20223;-75
2022/06/07 19:09:27;;;;;;;3.22;0.93;;;;;;;;;;10450306;28;20922;-75
2022/06/07 19:14:28;;;;;;;4.20;0.90;;;;;;;;;;10424859;28;20267;-75
2022/06/07 19:19:29;;;;;;;1.25;0.88;;;;;;;;;;10439700;28;20277;-75
2022/06/07 19:24:30;;;;;;;1.17;1.08;;;;;;;;;;10456008;28;20221;-74
2022/06/07 19:29:31;;;;;;;0.85;0.85;;;;;;;;;;10439542;28;20202;-74
2022/06/07 19:34:32;;;;;;;0.90;0.90;;;;;;;;;;10438513;28;20308;-75
2022/06/07 19:39:33;;;;;;;0.77;0.77;;;;;;;;;;10452132;28;20994;-75
2022/06/07 19:44:34;;;;;;;1.73;0.90;;;;;;;;;;10459998;28;20305;-75
2022/06/07 19:49:37;;;;;;;1.05;1.05;;;;;;;;;;10458198;28;20562;-75
2022/06/07 19:54:38;;;;;;;1.58;0.95;;;;;;;;;;10451352;28;20285;-75
2022/06/07 19:59:39;;;;;;;1.20;1.20;;;;;;;;;;10449897;28;20183;-74
2022/06/07 20:04:41;;;;;;;1.08;1.08;;;;;;;;;;10440956;28;20953;-75
2022/06/07 20:09:44;;;;;;;3.55;1.00;;;;;;;;;;10429206;28;20690;-75
2022/06/07 20:14:45;;;;;;;2.28;1.00;;;;;;;;;;10443297;28;20198;-75
2022/06/07 20:19:46;;;;;;;1.38;1.27;;;;;;;;;;10444881;28;20877;-75
2022/06/07 20:24:47;;;;;;;1.52;1.20;;;;;;;;;;10453946;28;20911;-75
2022/06/07 20:29:48;;;;;;;1.23;1.13;;;;;;;;;;10455088;28;20215;-74
2022/06/07 20:34:49;;;;;;;0.85;0.85;;;;;;;;;;10450398;28;20677;-75
2022/06/07 20:39:51;;;;;;;1.85;1.80;;;;;;;;;;10436386;28;20182;-75
2022/06/07 20:44:52;;;;;;;6.45;1.75;;;;;;;;;;10457558;28;20206;-74
2022/06/07 20:49:53;;;;;;;2.72;1.20;;;;;;;;;;10453996;28;20275;-75
2022/06/07 20:54:54;;;;;;;1.77;1.38;;;;;;;;;;10437362;28;20205;-75
2022/06/07 20:59:55;;;;;;;1.48;1.38;;;;;;;;;;10455188;28;20853;-75
2022/06/07 21:04:56;;;;;;;1.95;1.17;;;;;;;;;;10452406;28;20222;-75
2022/06/07 21:09:57;;;;;;;6.18;1.42;;;;;;;;;;10446221;28;20206;-74
2022/06/07 21:14:58;;;;;;;1.85;0.80;;;;;;;;;;10440171;28;21164;-74
2022/06/07 21:19:59;;;;;;;2.83;1.35;;;;;;;;;;10450287;28;20175;-74
2022/06/07 21:25:01;;;;;;;2.72;1.38;;;;;;;;;;10457856;28;20230;-73
2022/06/07 21:30:02;;;;;;;4.00;1.05;;;;;;;;;;10458911;28;20777;-73
2022/06/07 21:35:04;;;;;;;1.63;1.52;;;;;;;;;;10451638;28;20655;-72
2022/06/07 21:40:05;;;;;;;1.58;1.58;;;;;;;;;;10458127;28;20206;-73
2022/06/07 21:45:09;;;;;;;2.00;1.42;;;;;;;;;;10457163;28;20210;-72
2022/06/07 21:50:12;;;;;;;2.05;1.52;;;;;;;;;;10451154;28;20309;-72
2022/06/07 21:55:14;;;;;;;4.85;1.25;;;;;;;;;;10454913;28;20202;-72
2022/06/07 22:00:28;;;;;;;1.13;0.90;;;;;;;;;;10456378;28;20187;-73
2022/06/07 22:05:30;;;;;;;1.23;0.98;;;;;;;;;;10456636;28;20214;-73
2022/06/07 22:10:31;;;;;;;1.08;0.98;;;;;;;;;;10449482;28;20191;-71
2022/06/07 22:15:33;;;;;;;0.98;0.98;;;;;;;;;;10447628;28;20680;-73
2022/06/07 22:20:35;;;;;;;1.95;1.25;;;;;;;;;;10456841;28;20273;-74
2022/06/07 22:25:37;;;;;;;2.78;1.20;;;;;;;;;;10455337;28;21124;-72
2022/06/07 22:30:38;;;;;;;2.63;1.25;;;;;;;;;;10456503;28;20308;-72
2022/06/07 22:35:40;;;;;;;2.10;1.50;;;;;;;;;;10451424;28;20202;-73
2022/06/07 22:40:41;;;;;;;2.83;1.30;;;;;;;;;;10458692;28;20241;-72
2022/06/07 22:45:43;;;;;;;1.85;1.10;;;;;;;;;;10453087;28;20221;-72
2022/06/07 22:50:44;;;;;;;3.47;1.40;;;;;;;;;;10449524;28;20203;-72
2022/06/07 22:55:50;;;;;;;1.10;1.10;;;;;;;;;;10454765;28;20759;-72
2022/06/07 23:00:52;;;;;;;1.48;1.23;;;;;;;;;;10454479;28;20295;-72
2022/06/07 23:05:54;;;;;;;1.10;1.00;;;;;;;;;;10450314;28;20226;-72
2022/06/07 23:10:55;;;;;;;1.58;1.20;;;;;;;;;;10435732;28;20183;-72
2022/06/07 23:21:16;;;;;;;1.50;1.38;;;;;;;;;;10444806;28;20266;-72
2022/06/07 23:26:17;;;;;;;1.27;1.20;;;;;;;;;;10437344;28;20206;-72
2022/06/07 23:31:18;;;;;;;1.40;1.30;;;;;;;;;;10445846;28;20213;-71
2022/06/07 23:36:19;;;;;;;1.45;1.45;;;;;;;;;;10460546;28;20252;-72
2022/06/07 23:41:20;;;;;;;2.20;1.20;;;;;;;;;;10462068;28;20241;-74
2022/06/07 23:46:23;;;;;;;1.60;1.50;;;;;;;;;;10453041;28;20199;-73
2022/06/07 23:51:24;;;;;;;1.45;1.33;;;;;;;;;;10462216;28;20174;-72
2022/06/07 23:56:26;;;;;;;1.33;1.10;;;;;;;;;;10469180;28;20199;-71
